sensor_id;sensor_type;location;lat;lon;timestamp;P1;durP1;ratioP1;P2;durP2;ratioP2
12784;SDS011;6456;42.680;23.260;2024-01-27T00:00:03;2.13;;;1.93;;
12784;SDS011;6456;42.680;23.260;2024-01-27T00:02:31;4.23;;;1.93;;
12784;SDS011;6456;42.680;23.260;2024-01-27T00:04:58;7.10;;;2.27;;
12784;SDS011;6456;42.680;23.260;2024-01-27T00:07:26;3.13;;;1.77;;
12784;SDS011;6456;42.680;23.260;2024-01-27T00:09:53;4.53;;;2.40;;
12784;SDS011;6456;42.680;23.260;2024-01-27T00:12:20;4.23;;;1.80;;
12784;SDS011;6456;42.680;23.260;2024-01-27T00:14:48;3.77;;;2.27;;
12784;SDS011;6456;42.680;23.260;2024-01-27T00:17:15;5.70;;;2.20;;
12784;SDS011;6456;42.680;23.260;2024-01-27T00:19:42;3.03;;;1.73;;
12784;SDS011;6456;42.680;23.260;2024-01-27T00:22:09;3.20;;;1.93;;
12784;SDS011;6456;42.680;23.260;2024-01-27T00:24:38;5.37;;;2.10;;
12784;SDS011;6456;42.680;23.260;2024-01-27T00:27:05;4.33;;;2.30;;
12784;SDS011;6456;42.680;23.260;2024-01-27T00:29:32;4.73;;;2.00;;
12784;SDS011;6456;42.680;23.260;2024-01-27T00:31:59;4.63;;;2.07;;
12784;SDS011;6456;42.680;23.260;2024-01-27T00:34:26;3.70;;;2.00;;
12784;SDS011;6456;42.680;23.260;2024-01-27T00:36:53;3.57;;;1.93;;
12784;SDS011;6456;42.680;23.260;2024-01-27T00:39:20;4.17;;;2.03;;
12784;SDS011;6456;42.680;23.260;2024-01-27T00:41:49;3.73;;;2.50;;
12784;SDS011;6456;42.680;23.260;2024-01-27T00:44:16;4.63;;;2.10;;
12784;SDS011;6456;42.680;23.260;2024-01-27T00:46:43;4.10;;;2.03;;
12784;SDS011;6456;42.680;23.260;2024-01-27T00:49:10;6.50;;;2.00;;
12784;SDS011;6456;42.680;23.260;2024-01-27T00:51:37;2.83;;;1.60;;
12784;SDS011;6456;42.680;23.260;2024-01-27T00:54:05;4.70;;;2.07;;
12784;SDS011;6456;42.680;23.260;2024-01-27T00:56:32;4.23;;;2.20;;
12784;SDS011;6456;42.680;23.260;2024-01-27T00:59:00;5.50;;;2.20;;
12784;SDS011;6456;42.680;23.260;2024-01-27T01:01:27;4.57;;;1.93;;
12784;SDS011;6456;42.680;23.260;2024-01-27T01:03:54;4.77;;;2.30;;
12784;SDS011;6456;42.680;23.260;2024-01-27T01:06:21;2.77;;;1.90;;
12784;SDS011;6456;42.680;23.260;2024-01-27T01:08:49;5.30;;;2.40;;
12784;SDS011;6456;42.680;23.260;2024-01-27T01:11:16;4.90;;;2.20;;
12784;SDS011;6456;42.680;23.260;2024-01-27T01:13:43;3.30;;;2.27;;
12784;SDS011;6456;42.680;23.260;2024-01-27T01:16:12;5.13;;;2.10;;
12784;SDS011;6456;42.680;23.260;2024-01-27T01:18:39;4.77;;;2.10;;
12784;SDS011;6456;42.680;23.260;2024-01-27T01:21:06;6.00;;;2.30;;
12784;SDS011;6456;42.680;23.260;2024-01-27T01:23:33;4.90;;;2.73;;
12784;SDS011;6456;42.680;23.260;2024-01-27T01:26:00;2.80;;;1.70;;
12784;SDS011;6456;42.680;23.260;2024-01-27T01:28:27;3.57;;;2.27;;
12784;SDS011;6456;42.680;23.260;2024-01-27T01:30:55;5.77;;;2.10;;
12784;SDS011;6456;42.680;23.260;2024-01-27T01:33:23;4.77;;;1.87;;
12784;SDS011;6456;42.680;23.260;2024-01-27T01:35:50;5.83;;;2.20;;
12784;SDS011;6456;42.680;23.260;2024-01-27T01:38:16;3.67;;;1.73;;
12784;SDS011;6456;42.680;23.260;2024-01-27T01:40:43;3.60;;;2.10;;
12784;SDS011;6456;42.680;23.260;2024-01-27T01:43:10;3.97;;;1.90;;
12784;SDS011;6456;42.680;23.260;2024-01-27T01:45:37;3.00;;;1.80;;
12784;SDS011;6456;42.680;23.260;2024-01-27T01:48:04;4.00;;;2.00;;
12784;SDS011;6456;42.680;23.260;2024-01-27T01:50:33;2.83;;;1.67;;
12784;SDS011;6456;42.680;23.260;2024-01-27T01:53:00;2.17;;;1.70;;
12784;SDS011;6456;42.680;23.260;2024-01-27T01:55:28;2.77;;;1.60;;
12784;SDS011;6456;42.680;23.260;2024-01-27T01:57:55;5.20;;;1.80;;
12784;SDS011;6456;42.680;23.260;2024-01-27T02:00:22;2.73;;;2.00;;
12784;SDS011;6456;42.680;23.260;2024-01-27T02:02:49;2.00;;;1.20;;
12784;SDS011;6456;42.680;23.260;2024-01-27T02:05:16;1.07;;;1.00;;
12784;SDS011;6456;42.680;23.260;2024-01-27T02:07:44;3.23;;;1.30;;
12784;SDS011;6456;42.680;23.260;2024-01-27T02:10:15;4.27;;;1.33;;
12784;SDS011;6456;42.680;23.260;2024-01-27T02:12:42;2.67;;;1.50;;
12784;SDS011;6456;42.680;23.260;2024-01-27T02:15:10;2.37;;;1.30;;
12784;SDS011;6456;42.680;23.260;2024-01-27T02:17:38;2.90;;;1.47;;
12784;SDS011;6456;42.680;23.260;2024-01-27T02:20:06;2.10;;;1.57;;
12784;SDS011;6456;42.680;23.260;2024-01-27T02:22:34;3.00;;;1.43;;
12784;SDS011;6456;42.680;23.260;2024-01-27T02:25:03;2.13;;;1.30;;
12784;SDS011;6456;42.680;23.260;2024-01-27T02:27:30;1.67;;;1.40;;
12784;SDS011;6456;42.680;23.260;2024-01-27T02:29:58;3.03;;;1.23;;
12784;SDS011;6456;42.680;23.260;2024-01-27T02:32:25;1.53;;;1.20;;
12784;SDS011;6456;42.680;23.260;2024-01-27T02:34:52;1.90;;;1.17;;
12784;SDS011;6456;42.680;23.260;2024-01-27T02:37:19;2.07;;;1.40;;
12784;SDS011;6456;42.680;23.260;2024-01-27T02:39:46;2.60;;;1.20;;
12784;SDS011;6456;42.680;23.260;2024-01-27T02:42:15;2.77;;;1.67;;
12784;SDS011;6456;42.680;23.260;2024-01-27T02:44:42;2.77;;;1.33;;
12784;SDS011;6456;42.680;23.260;2024-01-27T02:47:09;1.63;;;1.10;;
12784;SDS011;6456;42.680;23.260;2024-01-27T02:49:36;3.43;;;1.27;;
12784;SDS011;6456;42.680;23.260;2024-01-27T02:52:03;3.20;;;1.50;;
12784;SDS011;6456;42.680;23.260;2024-01-27T02:54:30;2.80;;;1.50;;
12784;SDS011;6456;42.680;23.260;2024-01-27T02:56:58;3.37;;;1.60;;
12784;SDS011;6456;42.680;23.260;2024-01-27T02:59:26;2.20;;;1.60;;
12784;SDS011;6456;42.680;23.260;2024-01-27T03:01:53;3.17;;;1.23;;
12784;SDS011;6456;42.680;23.260;2024-01-27T03:04:20;3.40;;;1.67;;
12784;SDS011;6456;42.680;23.260;2024-01-27T03:06:48;6.90;;;1.80;;
12784;SDS011;6456;42.680;23.260;2024-01-27T03:09:15;4.63;;;2.30;;
12784;SDS011;6456;42.680;23.260;2024-01-27T03:11:42;3.80;;;1.70;;
12784;SDS011;6456;42.680;23.260;2024-01-27T03:14:09;5.83;;;2.00;;
12784;SDS011;6456;42.680;23.260;2024-01-27T03:16:38;4.23;;;1.67;;
12784;SDS011;6456;42.680;23.260;2024-01-27T03:19:05;3.93;;;1.87;;
12784;SDS011;6456;42.680;23.260;2024-01-27T03:21:32;3.97;;;1.73;;
12784;SDS011;6456;42.680;23.260;2024-01-27T03:23:59;2.60;;;1.60;;
12784;SDS011;6456;42.680;23.260;2024-01-27T03:26:26;2.67;;;1.73;;
12784;SDS011;6456;42.680;23.260;2024-01-27T03:28:54;2.47;;;1.50;;
12784;SDS011;6456;42.680;23.260;2024-01-27T03:31:21;2.07;;;1.53;;
12784;SDS011;6456;42.680;23.260;2024-01-27T03:33:49;3.30;;;1.40;;
12784;SDS011;6456;42.680;23.260;2024-01-27T03:36:17;2.20;;;1.60;;
12784;SDS011;6456;42.680;23.260;2024-01-27T03:38:44;2.97;;;1.40;;
12784;SDS011;6456;42.680;23.260;2024-01-27T03:41:11;2.53;;;1.57;;
12784;SDS011;6456;42.680;23.260;2024-01-27T03:43:38;2.67;;;1.50;;
12784;SDS011;6456;42.680;23.260;2024-01-27T03:46:05;2.57;;;1.70;;
12784;SDS011;6456;42.680;23.260;2024-01-27T03:48:32;3.63;;;1.60;;
12784;SDS011;6456;42.680;23.260;2024-01-27T03:51:01;3.10;;;1.33;;
12784;SDS011;6456;42.680;23.260;2024-01-27T03:53:28;1.60;;;1.50;;
12784;SDS011;6456;42.680;23.260;2024-01-27T03:55:56;2.57;;;1.67;;
12784;SDS011;6456;42.680;23.260;2024-01-27T03:58:24;1.97;;;1.47;;
12784;SDS011;6456;42.680;23.260;2024-01-27T04:00:52;3.53;;;1.50;;
12784;SDS011;6456;42.680;23.260;2024-01-27T04:03:19;4.30;;;1.60;;
12784;SDS011;6456;42.680;23.260;2024-01-27T04:05:46;3.00;;;1.60;;
12784;SDS011;6456;42.680;23.260;2024-01-27T04:08:14;3.77;;;2.10;;
12784;SDS011;6456;42.680;23.260;2024-01-27T04:10:42;4.47;;;1.90;;
12784;SDS011;6456;42.680;23.260;2024-01-27T04:13:09;3.83;;;2.60;;
12784;SDS011;6456;42.680;23.260;2024-01-27T04:15:36;4.10;;;2.40;;
12784;SDS011;6456;42.680;23.260;2024-01-27T04:18:04;4.50;;;3.60;;
12784;SDS011;6456;42.680;23.260;2024-01-27T04:20:33;2.43;;;1.60;;
12784;SDS011;6456;42.680;23.260;2024-01-27T04:23:00;2.10;;;1.70;;
12784;SDS011;6456;42.680;23.260;2024-01-27T04:25:29;2.70;;;1.60;;
12784;SDS011;6456;42.680;23.260;2024-01-27T04:27:56;3.43;;;1.90;;
12784;SDS011;6456;42.680;23.260;2024-01-27T04:30:23;3.97;;;1.90;;
12784;SDS011;6456;42.680;23.260;2024-01-27T04:32:50;2.00;;;1.47;;
12784;SDS011;6456;42.680;23.260;2024-01-27T04:35:17;3.20;;;1.60;;
12784;SDS011;6456;42.680;23.260;2024-01-27T04:37:44;4.43;;;1.80;;
12784;SDS011;6456;42.680;23.260;2024-01-27T04:40:11;3.87;;;1.60;;
12784;SDS011;6456;42.680;23.260;2024-01-27T04:42:40;2.47;;;1.73;;
12784;SDS011;6456;42.680;23.260;2024-01-27T04:45:08;1.33;;;1.20;;
12784;SDS011;6456;42.680;23.260;2024-01-27T04:47:35;2.70;;;1.83;;
12784;SDS011;6456;42.680;23.260;2024-01-27T04:50:03;2.87;;;1.57;;
12784;SDS011;6456;42.680;23.260;2024-01-27T04:52:30;3.50;;;1.60;;
12784;SDS011;6456;42.680;23.260;2024-01-27T04:54:57;2.63;;;1.60;;
12784;SDS011;6456;42.680;23.260;2024-01-27T04:57:25;3.67;;;1.80;;
12784;SDS011;6456;42.680;23.260;2024-01-27T04:59:53;2.30;;;1.57;;
12784;SDS011;6456;42.680;23.260;2024-01-27T05:02:21;2.40;;;1.10;;
12784;SDS011;6456;42.680;23.260;2024-01-27T05:04:48;4.23;;;1.77;;
12784;SDS011;6456;42.680;23.260;2024-01-27T05:07:15;1.80;;;1.37;;
12784;SDS011;6456;42.680;23.260;2024-01-27T05:09:42;1.47;;;1.30;;
12784;SDS011;6456;42.680;23.260;2024-01-27T05:12:09;2.13;;;1.30;;
12784;SDS011;6456;42.680;23.260;2024-01-27T05:14:36;2.03;;;1.30;;
12784;SDS011;6456;42.680;23.260;2024-01-27T05:17:04;1.60;;;1.20;;
12784;SDS011;6456;42.680;23.260;2024-01-27T05:19:32;2.30;;;1.30;;
12784;SDS011;6456;42.680;23.260;2024-01-27T05:21:59;1.90;;;1.60;;
12784;SDS011;6456;42.680;23.260;2024-01-27T05:24:26;2.03;;;1.70;;
12784;SDS011;6456;42.680;23.260;2024-01-27T05:26:53;3.00;;;1.37;;
12784;SDS011;6456;42.680;23.260;2024-01-27T05:29:20;2.50;;;1.40;;
12784;SDS011;6456;42.680;23.260;2024-01-27T05:31:47;1.50;;;1.40;;
12784;SDS011;6456;42.680;23.260;2024-01-27T05:34:16;2.57;;;1.40;;
12784;SDS011;6456;42.680;23.260;2024-01-27T05:36:43;2.90;;;1.07;;
12784;SDS011;6456;42.680;23.260;2024-01-27T05:39:10;1.33;;;1.20;;
12784;SDS011;6456;42.680;23.260;2024-01-27T05:41:37;2.17;;;1.63;;
12784;SDS011;6456;42.680;23.260;2024-01-27T05:44:04;1.90;;;1.40;;
12784;SDS011;6456;42.680;23.260;2024-01-27T05:46:30;1.40;;;1.30;;
12784;SDS011;6456;42.680;23.260;2024-01-27T05:48:58;2.50;;;1.80;;
12784;SDS011;6456;42.680;23.260;2024-01-27T05:51:29;2.13;;;1.20;;
12784;SDS011;6456;42.680;23.260;2024-01-27T05:53:56;1.57;;;1.33;;
12784;SDS011;6456;42.680;23.260;2024-01-27T05:56:23;1.47;;;1.37;;
12784;SDS011;6456;42.680;23.260;2024-01-27T05:58:50;1.97;;;1.20;;
12784;SDS011;6456;42.680;23.260;2024-01-27T06:01:18;1.00;;;1.00;;
12784;SDS011;6456;42.680;23.260;2024-01-27T06:03:45;0.67;;;0.67;;
12784;SDS011;6456;42.680;23.260;2024-01-27T06:06:13;2.57;;;1.00;;
12784;SDS011;6456;42.680;23.260;2024-01-27T06:08:42;1.33;;;0.97;;
12784;SDS011;6456;42.680;23.260;2024-01-27T06:11:09;1.70;;;1.10;;
12784;SDS011;6456;42.680;23.260;2024-01-27T06:13:36;1.33;;;1.20;;
12784;SDS011;6456;42.680;23.260;2024-01-27T06:16:08;1.30;;;1.10;;
12784;SDS011;6456;42.680;23.260;2024-01-27T06:18:36;1.13;;;0.80;;
12784;SDS011;6456;42.680;23.260;2024-01-27T06:21:04;1.10;;;1.00;;
12784;SDS011;6456;42.680;23.260;2024-01-27T06:23:32;1.37;;;1.20;;
12784;SDS011;6456;42.680;23.260;2024-01-27T06:26:03;1.40;;;1.20;;
12784;SDS011;6456;42.680;23.260;2024-01-27T06:28:31;1.33;;;1.23;;
12784;SDS011;6456;42.680;23.260;2024-01-27T06:30:58;1.97;;;1.20;;
12784;SDS011;6456;42.680;23.260;2024-01-27T06:33:25;1.43;;;1.00;;
12784;SDS011;6456;42.680;23.260;2024-01-27T06:35:52;2.10;;;1.60;;
12784;SDS011;6456;42.680;23.260;2024-01-27T06:38:19;2.20;;;1.37;;
12784;SDS011;6456;42.680;23.260;2024-01-27T06:40:46;1.30;;;1.10;;
12784;SDS011;6456;42.680;23.260;2024-01-27T06:43:16;1.00;;;1.00;;
12784;SDS011;6456;42.680;23.260;2024-01-27T06:45:43;1.17;;;1.07;;
12784;SDS011;6456;42.680;23.260;2024-01-27T06:48:10;1.20;;;1.10;;
12784;SDS011;6456;42.680;23.260;2024-01-27T06:50:37;1.33;;;1.23;;
12784;SDS011;6456;42.680;23.260;2024-01-27T06:53:04;2.30;;;1.10;;
12784;SDS011;6456;42.680;23.260;2024-01-27T06:55:31;0.90;;;0.90;;
12784;SDS011;6456;42.680;23.260;2024-01-27T06:57:58;1.63;;;1.20;;
12784;SDS011;6456;42.680;23.260;2024-01-27T07:00:27;1.00;;;1.00;;
12784;SDS011;6456;42.680;23.260;2024-01-27T07:02:54;1.40;;;1.30;;
12784;SDS011;6456;42.680;23.260;2024-01-27T07:05:21;0.90;;;0.90;;
12784;SDS011;6456;42.680;23.260;2024-01-27T07:07:48;1.57;;;1.00;;
12784;SDS011;6456;42.680;23.260;2024-01-27T07:10:16;1.00;;;0.97;;
12784;SDS011;6456;42.680;23.260;2024-01-27T07:12:43;1.07;;;0.90;;
12784;SDS011;6456;42.680;23.260;2024-01-27T07:15:10;1.57;;;0.93;;
12784;SDS011;6456;42.680;23.260;2024-01-27T07:17:38;1.50;;;1.40;;
12784;SDS011;6456;42.680;23.260;2024-01-27T07:20:06;1.80;;;1.33;;
12784;SDS011;6456;42.680;23.260;2024-01-27T07:22:34;2.47;;;1.23;;
12784;SDS011;6456;42.680;23.260;2024-01-27T07:25:01;1.73;;;1.40;;
12784;SDS011;6456;42.680;23.260;2024-01-27T07:27:28;1.53;;;1.30;;
12784;SDS011;6456;42.680;23.260;2024-01-27T07:29:55;1.20;;;1.10;;
12784;SDS011;6456;42.680;23.260;2024-01-27T07:32:22;1.43;;;1.23;;
12784;SDS011;6456;42.680;23.260;2024-01-27T07:34:51;2.03;;;1.30;;
12784;SDS011;6456;42.680;23.260;2024-01-27T07:37:18;1.50;;;1.40;;
12784;SDS011;6456;42.680;23.260;2024-01-27T07:39:46;1.63;;;1.30;;
12784;SDS011;6456;42.680;23.260;2024-01-27T07:42:14;1.90;;;1.70;;
12784;SDS011;6456;42.680;23.260;2024-01-27T07:44:43;2.50;;;1.97;;
12784;SDS011;6456;42.680;23.260;2024-01-27T07:47:14;2.13;;;1.60;;
12784;SDS011;6456;42.680;23.260;2024-01-27T07:49:41;1.87;;;1.67;;
12784;SDS011;6456;42.680;23.260;2024-01-27T07:52:09;2.20;;;2.00;;
12784;SDS011;6456;42.680;23.260;2024-01-27T07:54:36;3.70;;;1.60;;
12784;SDS011;6456;42.680;23.260;2024-01-27T07:57:05;2.93;;;1.77;;
12784;SDS011;6456;42.680;23.260;2024-01-27T07:59:32;2.03;;;1.90;;
12784;SDS011;6456;42.680;23.260;2024-01-27T08:01:59;4.03;;;1.80;;
12784;SDS011;6456;42.680;23.260;2024-01-27T08:04:26;2.87;;;1.63;;
12784;SDS011;6456;42.680;23.260;2024-01-27T08:06:53;2.33;;;1.93;;
12784;SDS011;6456;42.680;23.260;2024-01-27T08:09:22;1.60;;;1.50;;
12784;SDS011;6456;42.680;23.260;2024-01-27T08:11:50;2.20;;;2.00;;
12784;SDS011;6456;42.680;23.260;2024-01-27T08:14:17;1.77;;;1.50;;
12784;SDS011;6456;42.680;23.260;2024-01-27T08:16:45;2.00;;;1.80;;
12784;SDS011;6456;42.680;23.260;2024-01-27T08:19:12;2.17;;;1.97;;
12784;SDS011;6456;42.680;23.260;2024-01-27T08:21:45;3.97;;;2.00;;
12784;SDS011;6456;42.680;23.260;2024-01-27T08:24:12;2.50;;;1.80;;
12784;SDS011;6456;42.680;23.260;2024-01-27T08:26:40;2.83;;;2.17;;
12784;SDS011;6456;42.680;23.260;2024-01-27T08:29:14;2.37;;;2.00;;
12784;SDS011;6456;42.680;23.260;2024-01-27T08:31:45;3.57;;;1.90;;
12784;SDS011;6456;42.680;23.260;2024-01-27T08:34:12;2.40;;;1.97;;
12784;SDS011;6456;42.680;23.260;2024-01-27T08:36:39;2.30;;;2.10;;
12784;SDS011;6456;42.680;23.260;2024-01-27T08:39:07;2.53;;;1.77;;
12784;SDS011;6456;42.680;23.260;2024-01-27T08:41:40;2.00;;;1.60;;
12784;SDS011;6456;42.680;23.260;2024-01-27T08:44:09;1.47;;;1.33;;
12784;SDS011;6456;42.680;23.260;2024-01-27T08:46:37;2.47;;;1.90;;
12784;SDS011;6456;42.680;23.260;2024-01-27T08:49:05;1.93;;;1.47;;
12784;SDS011;6456;42.680;23.260;2024-01-27T08:51:32;1.47;;;1.37;;
12784;SDS011;6456;42.680;23.260;2024-01-27T08:54:00;3.17;;;2.00;;
12784;SDS011;6456;42.680;23.260;2024-01-27T08:56:27;2.43;;;1.60;;
12784;SDS011;6456;42.680;23.260;2024-01-27T08:58:59;1.57;;;1.47;;
12784;SDS011;6456;42.680;23.260;2024-01-27T09:01:26;2.30;;;1.67;;
12784;SDS011;6456;42.680;23.260;2024-01-27T09:03:53;1.50;;;1.40;;
12784;SDS011;6456;42.680;23.260;2024-01-27T09:06:23;2.63;;;1.73;;
12784;SDS011;6456;42.680;23.260;2024-01-27T09:08:50;2.17;;;1.47;;
12784;SDS011;6456;42.680;23.260;2024-01-27T09:11:17;1.53;;;1.40;;
12784;SDS011;6456;42.680;23.260;2024-01-27T09:13:44;2.00;;;1.40;;
12784;SDS011;6456;42.680;23.260;2024-01-27T09:16:15;1.50;;;1.40;;
12784;SDS011;6456;42.680;23.260;2024-01-27T09:18:42;1.40;;;1.30;;
12784;SDS011;6456;42.680;23.260;2024-01-27T09:21:09;1.70;;;1.50;;
12784;SDS011;6456;42.680;23.260;2024-01-27T09:23:37;1.93;;;1.20;;
12784;SDS011;6456;42.680;23.260;2024-01-27T09:26:04;1.70;;;1.60;;
12784;SDS011;6456;42.680;23.260;2024-01-27T09:28:32;2.17;;;1.87;;
12784;SDS011;6456;42.680;23.260;2024-01-27T09:30:59;2.07;;;1.73;;
12784;SDS011;6456;42.680;23.260;2024-01-27T09:33:27;1.87;;;1.60;;
12784;SDS011;6456;42.680;23.260;2024-01-27T09:35:55;1.50;;;1.40;;
12784;SDS011;6456;42.680;23.260;2024-01-27T09:38:22;1.90;;;1.60;;
12784;SDS011;6456;42.680;23.260;2024-01-27T09:40:49;1.70;;;1.60;;
12784;SDS011;6456;42.680;23.260;2024-01-27T09:43:16;1.50;;;1.40;;
12784;SDS011;6456;42.680;23.260;2024-01-27T09:45:44;1.87;;;1.63;;
12784;SDS011;6456;42.680;23.260;2024-01-27T09:48:12;1.83;;;1.73;;
12784;SDS011;6456;42.680;23.260;2024-01-27T09:50:42;1.77;;;1.63;;
12784;SDS011;6456;42.680;23.260;2024-01-27T09:53:10;1.77;;;1.67;;
12784;SDS011;6456;42.680;23.260;2024-01-27T09:55:37;1.60;;;1.50;;
12784;SDS011;6456;42.680;23.260;2024-01-27T09:58:04;1.70;;;1.60;;
12784;SDS011;6456;42.680;23.260;2024-01-27T10:00:31;2.20;;;1.70;;
12784;SDS011;6456;42.680;23.260;2024-01-27T10:03:00;1.37;;;1.20;;
12784;SDS011;6456;42.680;23.260;2024-01-27T10:05:28;1.30;;;1.27;;
12784;SDS011;6456;42.680;23.260;2024-01-27T10:07:58;1.70;;;1.60;;
12784;SDS011;6456;42.680;23.260;2024-01-27T10:10:25;2.53;;;1.67;;
12784;SDS011;6456;42.680;23.260;2024-01-27T10:12:52;1.13;;;1.13;;
12784;SDS011;6456;42.680;23.260;2024-01-27T10:15:23;2.57;;;1.30;;
12784;SDS011;6456;42.680;23.260;2024-01-27T10:17:52;1.37;;;1.07;;
12784;SDS011;6456;42.680;23.260;2024-01-27T10:20:19;1.60;;;1.50;;
12784;SDS011;6456;42.680;23.260;2024-01-27T10:22:46;1.40;;;1.30;;
12784;SDS011;6456;42.680;23.260;2024-01-27T10:25:14;1.60;;;1.50;;
12784;SDS011;6456;42.680;23.260;2024-01-27T10:27:42;1.27;;;1.27;;
12784;SDS011;6456;42.680;23.260;2024-01-27T10:30:14;1.20;;;1.10;;
12784;SDS011;6456;42.680;23.260;2024-01-27T10:32:43;1.23;;;1.23;;
12784;SDS011;6456;42.680;23.260;2024-01-27T10:35:20;1.30;;;1.20;;
12784;SDS011;6456;42.680;23.260;2024-01-27T10:37:51;1.70;;;1.50;;
12784;SDS011;6456;42.680;23.260;2024-01-27T10:40:20;1.20;;;1.20;;
12784;SDS011;6456;42.680;23.260;2024-01-27T10:42:51;1.80;;;1.23;;
12784;SDS011;6456;42.680;23.260;2024-01-27T10:45:26;1.20;;;1.10;;
12784;SDS011;6456;42.680;23.260;2024-01-27T10:47:56;0.90;;;0.90;;
12784;SDS011;6456;42.680;23.260;2024-01-27T10:50:26;1.10;;;1.07;;
12784;SDS011;6456;42.680;23.260;2024-01-27T10:52:53;1.33;;;1.23;;
12784;SDS011;6456;42.680;23.260;2024-01-27T10:55:25;1.30;;;1.20;;
12784;SDS011;6456;42.680;23.260;2024-01-27T10:57:59;1.50;;;1.40;;
12784;SDS011;6456;42.680;23.260;2024-01-27T11:00:28;1.40;;;1.17;;
12784;SDS011;6456;42.680;23.260;2024-01-27T11:02:57;1.50;;;1.40;;
12784;SDS011;6456;42.680;23.260;2024-01-27T11:05:25;1.37;;;1.27;;
12784;SDS011;6456;42.680;23.260;2024-01-27T11:07:54;1.40;;;1.30;;
12784;SDS011;6456;42.680;23.260;2024-01-27T11:10:22;1.40;;;1.30;;
12784;SDS011;6456;42.680;23.260;2024-01-27T11:12:51;1.80;;;1.70;;
12784;SDS011;6456;42.680;23.260;2024-01-27T11:15:20;1.30;;;1.20;;
12784;SDS011;6456;42.680;23.260;2024-01-27T11:17:47;2.40;;;1.50;;
12784;SDS011;6456;42.680;23.260;2024-01-27T11:20:15;1.40;;;1.30;;
12784;SDS011;6456;42.680;23.260;2024-01-27T11:22:42;1.50;;;1.40;;
12784;SDS011;6456;42.680;23.260;2024-01-27T11:25:14;1.30;;;1.20;;
12784;SDS011;6456;42.680;23.260;2024-01-27T11:27:42;1.90;;;1.70;;
12784;SDS011;6456;42.680;23.260;2024-01-27T11:32:54;1.50;;;1.40;;
12784;SDS011;6456;42.680;23.260;2024-01-27T11:35:22;1.70;;;1.60;;
12784;SDS011;6456;42.680;23.260;2024-01-27T11:37:49;1.67;;;1.57;;
12784;SDS011;6456;42.680;23.260;2024-01-27T11:40:16;1.93;;;1.60;;
12784;SDS011;6456;42.680;23.260;2024-01-27T11:42:44;2.87;;;1.80;;
12784;SDS011;6456;42.680;23.260;2024-01-27T11:45:21;1.77;;;1.67;;
12784;SDS011;6456;42.680;23.260;2024-01-27T11:47:49;2.07;;;1.93;;
12784;SDS011;6456;42.680;23.260;2024-01-27T11:50:17;2.10;;;1.90;;
12784;SDS011;6456;42.680;23.260;2024-01-27T11:52:45;2.10;;;1.90;;
12784;SDS011;6456;42.680;23.260;2024-01-27T11:55:13;1.90;;;1.80;;
12784;SDS011;6456;42.680;23.260;2024-01-27T11:57:40;1.80;;;1.70;;
12784;SDS011;6456;42.680;23.260;2024-01-27T12:00:08;1.80;;;1.70;;
12784;SDS011;6456;42.680;23.260;2024-01-27T12:02:36;1.60;;;1.50;;
12784;SDS011;6456;42.680;23.260;2024-01-27T12:05:05;1.60;;;1.50;;
12784;SDS011;6456;42.680;23.260;2024-01-27T12:07:33;2.20;;;2.00;;
12784;SDS011;6456;42.680;23.260;2024-01-27T12:10:01;1.80;;;1.70;;
12784;SDS011;6456;42.680;23.260;2024-01-27T12:12:36;1.80;;;1.70;;
12784;SDS011;6456;42.680;23.260;2024-01-27T12:15:03;1.70;;;1.60;;
12784;SDS011;6456;42.680;23.260;2024-01-27T12:17:31;1.67;;;1.57;;
12784;SDS011;6456;42.680;23.260;2024-01-27T12:19:59;1.60;;;1.50;;
12784;SDS011;6456;42.680;23.260;2024-01-27T12:22:31;1.63;;;1.53;;
12784;SDS011;6456;42.680;23.260;2024-01-27T12:25:07;2.67;;;1.67;;
12784;SDS011;6456;42.680;23.260;2024-01-27T12:27:40;1.80;;;1.70;;
12784;SDS011;6456;42.680;23.260;2024-01-27T12:30:08;2.10;;;1.50;;
12784;SDS011;6456;42.680;23.260;2024-01-27T12:32:36;1.73;;;1.63;;
12784;SDS011;6456;42.680;23.260;2024-01-27T12:35:05;2.27;;;1.73;;
12784;SDS011;6456;42.680;23.260;2024-01-27T12:37:34;1.77;;;1.67;;
12784;SDS011;6456;42.680;23.260;2024-01-27T12:40:02;2.83;;;1.70;;
12784;SDS011;6456;42.680;23.260;2024-01-27T12:42:32;2.63;;;1.53;;
12784;SDS011;6456;42.680;23.260;2024-01-27T12:45:02;1.80;;;1.70;;
12784;SDS011;6456;42.680;23.260;2024-01-27T12:47:29;2.40;;;1.47;;
12784;SDS011;6456;42.680;23.260;2024-01-27T12:49:56;1.50;;;1.40;;
12784;SDS011;6456;42.680;23.260;2024-01-27T12:52:24;1.67;;;1.57;;
12784;SDS011;6456;42.680;23.260;2024-01-27T12:54:52;1.80;;;1.70;;
12784;SDS011;6456;42.680;23.260;2024-01-27T12:57:20;2.33;;;1.70;;
12784;SDS011;6456;42.680;23.260;2024-01-27T12:59:47;1.57;;;1.37;;
12784;SDS011;6456;42.680;23.260;2024-01-27T13:02:15;2.33;;;1.67;;
12784;SDS011;6456;42.680;23.260;2024-01-27T13:04:43;1.53;;;1.40;;
12784;SDS011;6456;42.680;23.260;2024-01-27T13:07:10;1.40;;;1.30;;
12784;SDS011;6456;42.680;23.260;2024-01-27T13:09:37;1.40;;;1.30;;
12784;SDS011;6456;42.680;23.260;2024-01-27T13:12:06;1.77;;;1.67;;
12784;SDS011;6456;42.680;23.260;2024-01-27T13:14:33;1.73;;;1.57;;
12784;SDS011;6456;42.680;23.260;2024-01-27T13:17:00;1.53;;;1.43;;
12784;SDS011;6456;42.680;23.260;2024-01-27T13:19:27;1.50;;;1.40;;
12784;SDS011;6456;42.680;23.260;2024-01-27T13:21:56;1.40;;;1.30;;
12784;SDS011;6456;42.680;23.260;2024-01-27T13:24:23;1.77;;;1.40;;
12784;SDS011;6456;42.680;23.260;2024-01-27T13:26:50;1.83;;;1.70;;
12784;SDS011;6456;42.680;23.260;2024-01-27T13:29:19;1.70;;;1.60;;
12784;SDS011;6456;42.680;23.260;2024-01-27T13:31:48;2.70;;;1.20;;
12784;SDS011;6456;42.680;23.260;2024-01-27T13:34:15;1.93;;;1.40;;
12784;SDS011;6456;42.680;23.260;2024-01-27T13:36:43;1.47;;;1.37;;
12784;SDS011;6456;42.680;23.260;2024-01-27T13:39:10;1.63;;;1.20;;
12784;SDS011;6456;42.680;23.260;2024-01-27T13:41:39;2.10;;;1.30;;
12784;SDS011;6456;42.680;23.260;2024-01-27T13:44:06;1.60;;;1.27;;
12784;SDS011;6456;42.680;23.260;2024-01-27T13:46:34;2.10;;;1.30;;
12784;SDS011;6456;42.680;23.260;2024-01-27T13:49:01;2.23;;;1.60;;
12784;SDS011;6456;42.680;23.260;2024-01-27T13:51:28;2.03;;;1.40;;
12784;SDS011;6456;42.680;23.260;2024-01-27T13:53:55;2.17;;;1.73;;
12784;SDS011;6456;42.680;23.260;2024-01-27T13:56:22;1.43;;;1.33;;
12784;SDS011;6456;42.680;23.260;2024-01-27T13:58:49;1.47;;;1.10;;
12784;SDS011;6456;42.680;23.260;2024-01-27T14:01:17;1.87;;;1.30;;
12784;SDS011;6456;42.680;23.260;2024-01-27T14:03:46;1.27;;;1.13;;
12784;SDS011;6456;42.680;23.260;2024-01-27T14:06:13;1.63;;;1.20;;
12784;SDS011;6456;42.680;23.260;2024-01-27T14:08:40;1.60;;;1.33;;
12784;SDS011;6456;42.680;23.260;2024-01-27T14:11:07;2.47;;;1.20;;
12784;SDS011;6456;42.680;23.260;2024-01-27T14:13:34;2.87;;;1.60;;
12784;SDS011;6456;42.680;23.260;2024-01-27T14:16:02;1.60;;;1.23;;
12784;SDS011;6456;42.680;23.260;2024-01-27T14:18:29;1.90;;;1.30;;
12784;SDS011;6456;42.680;23.260;2024-01-27T14:20:58;2.73;;;1.30;;
12784;SDS011;6456;42.680;23.260;2024-01-27T14:23:25;1.90;;;1.23;;
12784;SDS011;6456;42.680;23.260;2024-01-27T14:25:52;2.10;;;1.37;;
12784;SDS011;6456;42.680;23.260;2024-01-27T14:28:19;1.37;;;1.20;;
12784;SDS011;6456;42.680;23.260;2024-01-27T14:30:47;1.70;;;1.40;;
12784;SDS011;6456;42.680;23.260;2024-01-27T14:33:14;1.33;;;1.20;;
12784;SDS011;6456;42.680;23.260;2024-01-27T14:35:45;1.57;;;1.20;;
12784;SDS011;6456;42.680;23.260;2024-01-27T14:38:14;1.37;;;1.10;;
12784;SDS011;6456;42.680;23.260;2024-01-27T14:40:41;1.23;;;1.07;;
12784;SDS011;6456;42.680;23.260;2024-01-27T14:43:08;1.40;;;1.30;;
12784;SDS011;6456;42.680;23.260;2024-01-27T14:45:37;1.30;;;1.20;;
12784;SDS011;6456;42.680;23.260;2024-01-27T14:48:04;1.30;;;1.20;;
12784;SDS011;6456;42.680;23.260;2024-01-27T14:50:32;2.50;;;1.10;;
12784;SDS011;6456;42.680;23.260;2024-01-27T14:52:59;1.90;;;1.40;;